sensor_id;sensor_type;location;lat;lon;timestamp;P1;durP1;ratioP1;P2;durP2;ratioP2
27839;SDS011;15207;42.182;24.308;2022-12-07T00:01:03;62.55;;;29.00;;
27839;SDS011;15207;42.182;24.308;2022-12-07T00:03:34;66.25;;;29.90;;
27839;SDS011;15207;42.182;24.308;2022-12-07T00:06:01;62.50;;;29.80;;
27839;SDS011;15207;42.182;24.308;2022-12-07T00:08:27;57.60;;;28.10;;
27839;SDS011;15207;42.182;24.308;2022-12-07T00:10:53;57.80;;;27.53;;
27839;SDS011;15207;42.182;24.308;2022-12-07T00:13:19;54.20;;;26.50;;
27839;SDS011;15207;42.182;24.308;2022-12-07T00:18:10;54.30;;;26.40;;
27839;SDS011;15207;42.182;24.308;2022-12-07T00:20:36;47.10;;;24.70;;
27839;SDS011;15207;42.182;24.308;2022-12-07T00:23:01;62.50;;;26.03;;
27839;SDS011;15207;42.182;24.308;2022-12-07T00:25:27;58.00;;;25.60;;
27839;SDS011;15207;42.182;24.308;2022-12-07T00:27:53;60.45;;;26.30;;
27839;SDS011;15207;42.182;24.308;2022-12-07T00:30:21;47.00;;;25.30;;
27839;SDS011;15207;42.182;24.308;2022-12-07T00:32:47;47.15;;;24.05;;
27839;SDS011;15207;42.182;24.308;2022-12-07T00:35:13;51.53;;;24.73;;
27839;SDS011;15207;42.182;24.308;2022-12-07T00:37:39;53.65;;;25.35;;
27839;SDS011;15207;42.182;24.308;2022-12-07T00:40:04;50.87;;;24.77;;
27839;SDS011;15207;42.182;24.308;2022-12-07T00:42:31;59.35;;;26.85;;
27839;SDS011;15207;42.182;24.308;2022-12-07T00:47:22;57.00;;;25.15;;
27839;SDS011;15207;42.182;24.308;2022-12-07T00:49:47;53.90;;;25.10;;
27839;SDS011;15207;42.182;24.308;2022-12-07T00:52:13;56.95;;;25.67;;
27839;SDS011;15207;42.182;24.308;2022-12-07T00:54:39;51.60;;;24.00;;
27839;SDS011;15207;42.182;24.308;2022-12-07T00:57:05;48.33;;;23.80;;
27839;SDS011;15207;42.182;24.308;2022-12-07T01:01:56;57.70;;;25.80;;
27839;SDS011;15207;42.182;24.308;2022-12-07T01:04:22;53.45;;;24.45;;
27839;SDS011;15207;42.182;24.308;2022-12-07T01:06:48;50.45;;;24.60;;
27839;SDS011;15207;42.182;24.308;2022-12-07T01:11:39;51.75;;;25.20;;
27839;SDS011;15207;42.182;24.308;2022-12-07T01:16:30;50.38;;;24.13;;
27839;SDS011;15207;42.182;24.308;2022-12-07T01:18:57;56.30;;;25.30;;
27839;SDS011;15207;42.182;24.308;2022-12-07T01:21:25;59.83;;;26.57;;
27839;SDS011;15207;42.182;24.308;2022-12-07T01:23:53;53.75;;;26.05;;
27839;SDS011;15207;42.182;24.308;2022-12-07T01:28:46;58.20;;;26.60;;
27839;SDS011;15207;42.182;24.308;2022-12-07T01:31:16;55.13;;;24.13;;
27839;SDS011;15207;42.182;24.308;2022-12-07T01:36:14;54.00;;;25.80;;
27839;SDS011;15207;42.182;24.308;2022-12-07T01:38:44;49.40;;;24.50;;
27839;SDS011;15207;42.182;24.308;2022-12-07T01:41:10;55.25;;;24.25;;
27839;SDS011;15207;42.182;24.308;2022-12-07T01:43:36;47.40;;;23.70;;
27839;SDS011;15207;42.182;24.308;2022-12-07T01:46:22;46.85;;;23.20;;
27839;SDS011;15207;42.182;24.308;2022-12-07T01:48:48;60.00;;;27.20;;
27839;SDS011;15207;42.182;24.308;2022-12-07T01:51:14;54.60;;;24.30;;
27839;SDS011;15207;42.182;24.308;2022-12-07T01:53:42;54.60;;;25.90;;
27839;SDS011;15207;42.182;24.308;2022-12-07T01:56:11;58.70;;;28.00;;
27839;SDS011;15207;42.182;24.308;2022-12-07T01:58:42;79.10;;;33.60;;
27839;SDS011;15207;42.182;24.308;2022-12-07T02:01:08;54.07;;;24.40;;
27839;SDS011;15207;42.182;24.308;2022-12-07T02:03:41;71.80;;;27.83;;
27839;SDS011;15207;42.182;24.308;2022-12-07T02:06:08;55.80;;;26.30;;
27839;SDS011;15207;42.182;24.308;2022-12-07T02:08:37;95.50;;;35.73;;
27839;SDS011;15207;42.182;24.308;2022-12-07T02:11:03;75.10;;;32.00;;
27839;SDS011;15207;42.182;24.308;2022-12-07T02:13:31;56.60;;;25.60;;
27839;SDS011;15207;42.182;24.308;2022-12-07T02:21:29;60.00;;;28.05;;
27839;SDS011;15207;42.182;24.308;2022-12-07T02:29:50;64.65;;;28.80;;
27839;SDS011;15207;42.182;24.308;2022-12-07T02:32:33;62.03;;;26.63;;
27839;SDS011;15207;42.182;24.308;2022-12-07T02:35:05;62.10;;;27.43;;
27839;SDS011;15207;42.182;24.308;2022-12-07T02:37:36;58.97;;;26.60;;
27839;SDS011;15207;42.182;24.308;2022-12-07T02:40:27;54.55;;;24.50;;
27839;SDS011;15207;42.182;24.308;2022-12-07T02:42:56;48.50;;;23.90;;
27839;SDS011;15207;42.182;24.308;2022-12-07T02:45:27;47.55;;;23.30;;
27839;SDS011;15207;42.182;24.308;2022-12-07T02:47:56;48.40;;;23.15;;
27839;SDS011;15207;42.182;24.308;2022-12-07T02:50:26;54.15;;;23.65;;
27839;SDS011;15207;42.182;24.308;2022-12-07T02:52:52;52.60;;;24.27;;
27839;SDS011;15207;42.182;24.308;2022-12-07T02:55:18;47.35;;;23.05;;
27839;SDS011;15207;42.182;24.308;2022-12-07T03:00:18;46.75;;;23.85;;
27839;SDS011;15207;42.182;24.308;2022-12-07T03:16:20;47.40;;;22.70;;
27839;SDS011;15207;42.182;24.308;2022-12-07T03:18:58;48.00;;;22.20;;
27839;SDS011;15207;42.182;24.308;2022-12-07T03:21:28;47.25;;;21.75;;
27839;SDS011;15207;42.182;24.308;2022-12-07T03:23:58;42.90;;;21.77;;
27839;SDS011;15207;42.182;24.308;2022-12-07T03:26:32;55.00;;;23.65;;
27839;SDS011;15207;42.182;24.308;2022-12-07T03:29:04;56.10;;;23.60;;
27839;SDS011;15207;42.182;24.308;2022-12-07T03:31:36;47.20;;;22.00;;
27839;SDS011;15207;42.182;24.308;2022-12-07T03:34:08;47.10;;;21.40;;
27839;SDS011;15207;42.182;24.308;2022-12-07T03:37:00;51.70;;;23.10;;
27839;SDS011;15207;42.182;24.308;2022-12-07T03:42:02;50.55;;;22.75;;
27839;SDS011;15207;42.182;24.308;2022-12-07T03:44:31;56.15;;;23.50;;
27839;SDS011;15207;42.182;24.308;2022-12-07T03:50:00;47.50;;;22.00;;
27839;SDS011;15207;42.182;24.308;2022-12-07T03:52:37;49.80;;;22.20;;
27839;SDS011;15207;42.182;24.308;2022-12-07T03:55:20;48.05;;;22.30;;
27839;SDS011;15207;42.182;24.308;2022-12-07T03:57:53;55.30;;;22.70;;
27839;SDS011;15207;42.182;24.308;2022-12-07T04:00:24;46.50;;;21.00;;
27839;SDS011;15207;42.182;24.308;2022-12-07T04:02:51;50.95;;;22.90;;
27839;SDS011;15207;42.182;24.308;2022-12-07T04:05:17;50.20;;;22.50;;
27839;SDS011;15207;42.182;24.308;2022-12-07T04:07:43;49.20;;;24.40;;
27839;SDS011;15207;42.182;24.308;2022-12-07T04:12:35;62.10;;;28.45;;
27839;SDS011;15207;42.182;24.308;2022-12-07T04:15:00;54.90;;;24.90;;
27839;SDS011;15207;42.182;24.308;2022-12-07T04:17:26;67.20;;;26.40;;
27839;SDS011;15207;42.182;24.308;2022-12-07T04:19:51;57.75;;;25.65;;
27839;SDS011;15207;42.182;24.308;2022-12-07T04:22:17;61.90;;;25.97;;
27839;SDS011;15207;42.182;24.308;2022-12-07T04:24:42;60.80;;;25.55;;
27839;SDS011;15207;42.182;24.308;2022-12-07T04:27:08;57.20;;;27.60;;
27839;SDS011;15207;42.182;24.308;2022-12-07T04:29:33;55.40;;;28.20;;
27839;SDS011;15207;42.182;24.308;2022-12-07T04:31:59;62.30;;;24.50;;
27839;SDS011;15207;42.182;24.308;2022-12-07T04:34:25;61.63;;;24.93;;
27839;SDS011;15207;42.182;24.308;2022-12-07T04:36:50;55.60;;;23.45;;
27839;SDS011;15207;42.182;24.308;2022-12-07T04:41:47;48.37;;;21.77;;
27839;SDS011;15207;42.182;24.308;2022-12-07T04:44:13;46.60;;;21.57;;
27839;SDS011;15207;42.182;24.308;2022-12-07T04:46:39;43.70;;;19.00;;
27839;SDS011;15207;42.182;24.308;2022-12-07T04:49:06;46.90;;;19.60;;
27839;SDS011;15207;42.182;24.308;2022-12-07T04:51:31;44.20;;;19.10;;
27839;SDS011;15207;42.182;24.308;2022-12-07T04:53:57;37.60;;;19.23;;
27839;SDS011;15207;42.182;24.308;2022-12-07T04:56:23;37.70;;;19.25;;
27839;SDS011;15207;42.182;24.308;2022-12-07T04:58:49;40.10;;;18.40;;
27839;SDS011;15207;42.182;24.308;2022-12-07T05:01:16;40.40;;;19.85;;
27839;SDS011;15207;42.182;24.308;2022-12-07T05:03:42;41.95;;;19.35;;
27839;SDS011;15207;42.182;24.308;2022-12-07T05:06:08;32.40;;;17.20;;
27839;SDS011;15207;42.182;24.308;2022-12-07T05:08:34;38.45;;;17.75;;
27839;SDS011;15207;42.182;24.308;2022-12-07T05:11:01;39.95;;;19.45;;
27839;SDS011;15207;42.182;24.308;2022-12-07T05:13:27;37.10;;;18.95;;
27839;SDS011;15207;42.182;24.308;2022-12-07T05:15:53;42.50;;;19.60;;
27839;SDS011;15207;42.182;24.308;2022-12-07T05:18:19;40.10;;;20.40;;
27839;SDS011;15207;42.182;24.308;2022-12-07T05:20:44;36.55;;;19.25;;
27839;SDS011;15207;42.182;24.308;2022-12-07T05:23:10;40.50;;;20.57;;
27839;SDS011;15207;42.182;24.308;2022-12-07T05:25:36;36.95;;;19.45;;
27839;SDS011;15207;42.182;24.308;2022-12-07T05:28:02;43.20;;;19.30;;
27839;SDS011;15207;42.182;24.308;2022-12-07T05:32:54;61.60;;;26.90;;
27839;SDS011;15207;42.182;24.308;2022-12-07T05:35:20;67.70;;;27.70;;
27839;SDS011;15207;42.182;24.308;2022-12-07T05:37:46;64.40;;;30.05;;
27839;SDS011;15207;42.182;24.308;2022-12-07T05:40:12;74.90;;;33.20;;
27839;SDS011;15207;42.182;24.308;2022-12-07T05:42:38;61.30;;;29.40;;
27839;SDS011;15207;42.182;24.308;2022-12-07T05:45:04;74.90;;;27.70;;
27839;SDS011;15207;42.182;24.308;2022-12-07T05:47:31;60.60;;;24.75;;
27839;SDS011;15207;42.182;24.308;2022-12-07T05:49:56;71.27;;;25.80;;
27839;SDS011;15207;42.182;24.308;2022-12-07T05:52:22;59.25;;;25.35;;
27839;SDS011;15207;42.182;24.308;2022-12-07T05:54:48;50.50;;;23.30;;
27839;SDS011;15207;42.182;24.308;2022-12-07T05:57:13;44.90;;;22.75;;
27839;SDS011;15207;42.182;24.308;2022-12-07T05:59:39;45.60;;;22.90;;
27839;SDS011;15207;42.182;24.308;2022-12-07T06:02:06;51.05;;;24.00;;
27839;SDS011;15207;42.182;24.308;2022-12-07T06:04:35;49.00;;;24.50;;
27839;SDS011;15207;42.182;24.308;2022-12-07T06:07:04;53.80;;;27.50;;
27839;SDS011;15207;42.182;24.308;2022-12-07T06:09:30;63.60;;;31.20;;
27839;SDS011;15207;42.182;24.308;2022-12-07T06:11:56;61.63;;;29.80;;
27839;SDS011;15207;42.182;24.308;2022-12-07T06:14:41;60.70;;;29.50;;
27839;SDS011;15207;42.182;24.308;2022-12-07T06:17:07;67.50;;;30.10;;
27839;SDS011;15207;42.182;24.308;2022-12-07T06:19:33;61.60;;;29.60;;
27839;SDS011;15207;42.182;24.308;2022-12-07T06:22:00;60.13;;;28.67;;
27839;SDS011;15207;42.182;24.308;2022-12-07T06:26:51;61.87;;;29.50;;
27839;SDS011;15207;42.182;24.308;2022-12-07T06:29:17;58.60;;;28.70;;
27839;SDS011;15207;42.182;24.308;2022-12-07T06:31:44;64.23;;;30.13;;
27839;SDS011;15207;42.182;24.308;2022-12-07T06:34:11;63.55;;;29.60;;
27839;SDS011;15207;42.182;24.308;2022-12-07T06:36:39;69.40;;;30.30;;
27839;SDS011;15207;42.182;24.308;2022-12-07T06:39:05;60.20;;;30.60;;
27839;SDS011;15207;42.182;24.308;2022-12-07T06:41:32;65.80;;;31.90;;
27839;SDS011;15207;42.182;24.308;2022-12-07T06:43:58;67.95;;;33.40;;
27839;SDS011;15207;42.182;24.308;2022-12-07T06:46:24;72.35;;;33.65;;
27839;SDS011;15207;42.182;24.308;2022-12-07T06:48:50;76.60;;;32.15;;
27839;SDS011;15207;42.182;24.308;2022-12-07T06:51:16;69.15;;;32.60;;
27839;SDS011;15207;42.182;24.308;2022-12-07T06:53:42;63.05;;;30.85;;
27839;SDS011;15207;42.182;24.308;2022-12-07T06:56:07;66.80;;;30.35;;
27839;SDS011;15207;42.182;24.308;2022-12-07T06:58:33;62.10;;;29.15;;
27839;SDS011;15207;42.182;24.308;2022-12-07T07:00:58;64.00;;;30.38;;
27839;SDS011;15207;42.182;24.308;2022-12-07T07:03:24;59.53;;;29.75;;
27839;SDS011;15207;42.182;24.308;2022-12-07T07:05:50;60.05;;;30.10;;
27839;SDS011;15207;42.182;24.308;2022-12-07T07:08:15;58.60;;;29.10;;
27839;SDS011;15207;42.182;24.308;2022-12-07T07:10:41;58.60;;;28.20;;
27839;SDS011;15207;42.182;24.308;2022-12-07T07:13:07;69.05;;;31.95;;
27839;SDS011;15207;42.182;24.308;2022-12-07T07:15:33;68.20;;;30.00;;
27839;SDS011;15207;42.182;24.308;2022-12-07T07:17:59;68.70;;;30.80;;
27839;SDS011;15207;42.182;24.308;2022-12-07T07:20:25;68.70;;;31.20;;
27839;SDS011;15207;42.182;24.308;2022-12-07T07:22:53;67.33;;;30.70;;
27839;SDS011;15207;42.182;24.308;2022-12-07T07:25:19;66.15;;;28.35;;
27839;SDS011;15207;42.182;24.308;2022-12-07T07:27:45;51.60;;;27.10;;
27839;SDS011;15207;42.182;24.308;2022-12-07T07:30:11;52.00;;;27.10;;
27839;SDS011;15207;42.182;24.308;2022-12-07T07:32:38;63.05;;;30.25;;
27839;SDS011;15207;42.182;24.308;2022-12-07T07:35:03;63.50;;;29.77;;
27839;SDS011;15207;42.182;24.308;2022-12-07T07:37:30;57.60;;;30.60;;
27839;SDS011;15207;42.182;24.308;2022-12-07T07:39:56;59.60;;;30.45;;
27839;SDS011;15207;42.182;24.308;2022-12-07T07:42:21;57.27;;;29.73;;
27839;SDS011;15207;42.182;24.308;2022-12-07T07:47:13;48.80;;;26.60;;
27839;SDS011;15207;42.182;24.308;2022-12-07T07:49:38;46.50;;;26.50;;
27839;SDS011;15207;42.182;24.308;2022-12-07T07:52:05;44.80;;;24.80;;
27839;SDS011;15207;42.182;24.308;2022-12-07T07:56:56;49.80;;;25.10;;
27839;SDS011;15207;42.182;24.308;2022-12-07T07:59:22;51.87;;;24.53;;
27839;SDS011;15207;42.182;24.308;2022-12-07T08:01:48;47.10;;;23.60;;
27839;SDS011;15207;42.182;24.308;2022-12-07T08:06:40;47.00;;;24.00;;
27839;SDS011;15207;42.182;24.308;2022-12-07T08:09:07;61.15;;;25.20;;
27839;SDS011;15207;42.182;24.308;2022-12-07T08:11:34;54.60;;;24.75;;
27839;SDS011;15207;42.182;24.308;2022-12-07T08:14:01;48.35;;;25.50;;
27839;SDS011;15207;42.182;24.308;2022-12-07T08:16:27;49.70;;;24.85;;
27839;SDS011;15207;42.182;24.308;2022-12-07T08:18:52;59.45;;;25.30;;
27839;SDS011;15207;42.182;24.308;2022-12-07T08:21:18;53.07;;;26.10;;
27839;SDS011;15207;42.182;24.308;2022-12-07T08:23:44;49.95;;;24.30;;
27839;SDS011;15207;42.182;24.308;2022-12-07T08:26:10;54.40;;;25.25;;
27839;SDS011;15207;42.182;24.308;2022-12-07T08:28:38;52.30;;;24.90;;
27839;SDS011;15207;42.182;24.308;2022-12-07T08:31:05;54.25;;;24.55;;
27839;SDS011;15207;42.182;24.308;2022-12-07T08:33:32;55.10;;;24.30;;
27839;SDS011;15207;42.182;24.308;2022-12-07T08:36:02;51.10;;;24.40;;
27839;SDS011;15207;42.182;24.308;2022-12-07T08:38:30;51.40;;;25.00;;
27839;SDS011;15207;42.182;24.308;2022-12-07T08:40:57;51.65;;;24.20;;
27839;SDS011;15207;42.182;24.308;2022-12-07T08:43:23;49.55;;;25.63;;
27839;SDS011;15207;42.182;24.308;2022-12-07T08:48:34;44.25;;;21.90;;
27839;SDS011;15207;42.182;24.308;2022-12-07T08:51:04;43.50;;;21.60;;
27839;SDS011;15207;42.182;24.308;2022-12-07T08:53:30;38.90;;;20.47;;
27839;SDS011;15207;42.182;24.308;2022-12-07T08:55:57;38.10;;;20.40;;
27839;SDS011;15207;42.182;24.308;2022-12-07T08:58:23;45.10;;;20.27;;
27839;SDS011;15207;42.182;24.308;2022-12-07T09:00:49;34.50;;;19.35;;
27839;SDS011;15207;42.182;24.308;2022-12-07T09:03:15;39.37;;;20.07;;
27839;SDS011;15207;42.182;24.308;2022-12-07T09:05:41;39.60;;;20.95;;
27839;SDS011;15207;42.182;24.308;2022-12-07T09:08:07;42.70;;;20.90;;
27839;SDS011;15207;42.182;24.308;2022-12-07T09:10:33;45.58;;;21.15;;
27839;SDS011;15207;42.182;24.308;2022-12-07T09:12:59;40.50;;;21.40;;
27839;SDS011;15207;42.182;24.308;2022-12-07T09:15:28;37.00;;;20.40;;
27839;SDS011;15207;42.182;24.308;2022-12-07T09:17:54;39.90;;;20.70;;
27839;SDS011;15207;42.182;24.308;2022-12-07T09:20:20;42.00;;;19.60;;
27839;SDS011;15207;42.182;24.308;2022-12-07T09:22:45;48.50;;;20.70;;
27839;SDS011;15207;42.182;24.308;2022-12-07T09:25:11;42.80;;;21.20;;
27839;SDS011;15207;42.182;24.308;2022-12-07T09:30:03;38.40;;;20.20;;
27839;SDS011;15207;42.182;24.308;2022-12-07T09:32:30;41.30;;;21.90;;
27839;SDS011;15207;42.182;24.308;2022-12-07T09:34:56;43.77;;;22.87;;
27839;SDS011;15207;42.182;24.308;2022-12-07T09:37:21;54.57;;;24.03;;
27839;SDS011;15207;42.182;24.308;2022-12-07T09:39:47;51.70;;;25.00;;
27839;SDS011;15207;42.182;24.308;2022-12-07T09:42:35;54.10;;;24.10;;
27839;SDS011;15207;42.182;24.308;2022-12-07T09:45:02;49.75;;;23.40;;
27839;SDS011;15207;42.182;24.308;2022-12-07T09:47:32;53.20;;;23.40;;
27839;SDS011;15207;42.182;24.308;2022-12-07T09:50:03;57.90;;;26.30;;
27839;SDS011;15207;42.182;24.308;2022-12-07T09:52:33;44.40;;;23.50;;
27839;SDS011;15207;42.182;24.308;2022-12-07T09:54:58;47.90;;;24.67;;
27839;SDS011;15207;42.182;24.308;2022-12-07T09:57:31;51.60;;;24.95;;
27839;SDS011;15207;42.182;24.308;2022-12-07T10:00:05;46.45;;;23.70;;
27839;SDS011;15207;42.182;24.308;2022-12-07T10:02:48;53.30;;;24.75;;
27839;SDS011;15207;42.182;24.308;2022-12-07T10:05:19;52.70;;;27.10;;
27839;SDS011;15207;42.182;24.308;2022-12-07T10:07:57;55.05;;;27.90;;
27839;SDS011;15207;42.182;24.308;2022-12-07T10:10:25;51.70;;;26.10;;
27839;SDS011;15207;42.182;24.308;2022-12-07T10:20:46;53.42;;;25.98;;
27839;SDS011;15207;42.182;24.308;2022-12-07T10:23:17;56.60;;;28.70;;
27839;SDS011;15207;42.182;24.308;2022-12-07T10:25:44;53.33;;;27.30;;
27839;SDS011;15207;42.182;24.308;2022-12-07T10:31:00;31.30;;;15.40;;
27839;SDS011;15207;42.182;24.308;2022-12-07T10:36:25;33.95;;;17.60;;
27839;SDS011;15207;42.182;24.308;2022-12-07T10:41:43;37.00;;;19.50;;
27839;SDS011;15207;42.182;24.308;2022-12-07T10:44:26;44.40;;;19.23;;
27839;SDS011;15207;42.182;24.308;2022-12-07T10:52:53;50.97;;;24.13;;
27839;SDS011;15207;42.182;24.308;2022-12-07T11:00:58;48.25;;;26.10;;
27839;SDS011;15207;42.182;24.308;2022-12-07T11:03:50;46.60;;;25.10;;
27839;SDS011;15207;42.182;24.308;2022-12-07T11:11:51;51.30;;;24.50;;
27839;SDS011;15207;42.182;24.308;2022-12-07T11:17:16;46.50;;;24.40;;
27839;SDS011;15207;42.182;24.308;2022-12-07T11:22:26;49.70;;;25.60;;
27839;SDS011;15207;42.182;24.308;2022-12-07T11:30:57;53.70;;;26.50;;
27839;SDS011;15207;42.182;24.308;2022-12-07T11:33:47;59.60;;;25.50;;
27839;SDS011;15207;42.182;24.308;2022-12-07T11:39:04;67.55;;;25.30;;
27839;SDS011;15207;42.182;24.308;2022-12-07T11:42:14;52.50;;;26.67;;
27839;SDS011;15207;42.182;24.308;2022-12-07T11:45:04;48.30;;;25.30;;
27839;SDS011;15207;42.182;24.308;2022-12-07T11:47:40;48.70;;;24.60;;
27839;SDS011;15207;42.182;24.308;2022-12-07T11:50:51;55.40;;;25.70;;
27839;SDS011;15207;42.182;24.308;2022-12-07T11:53:23;53.17;;;26.73;;
27839;SDS011;15207;42.182;24.308;2022-12-07T11:56:11;53.80;;;26.00;;
27839;SDS011;15207;42.182;24.308;2022-12-07T11:58:42;81.30;;;29.50;;
27839;SDS011;15207;42.182;24.308;2022-12-07T12:03:58;54.30;;;26.45;;
27839;SDS011;15207;42.182;24.308;2022-12-07T12:06:31;48.35;;;26.30;;
27839;SDS011;15207;42.182;24.308;2022-12-07T12:19:42;48.40;;;25.90;;
27839;SDS011;15207;42.182;24.308;2022-12-07T12:24:47;50.55;;;25.85;;
27839;SDS011;15207;42.182;24.308;2022-12-07T12:29:55;54.55;;;26.00;;
27839;SDS011;15207;42.182;24.308;2022-12-07T12:32:30;50.30;;;26.30;;
27839;SDS011;15207;42.182;24.308;2022-12-07T12:35:17;51.70;;;26.70;;
27839;SDS011;15207;42.182;24.308;2022-12-07T12:37:48;52.20;;;25.20;;
27839;SDS011;15207;42.182;24.308;2022-12-07T12:42:44;53.08;;;25.17;;
27839;SDS011;15207;42.182;24.308;2022-12-07T12:45:27;53.80;;;26.25;;
27839;SDS011;15207;42.182;24.308;2022-12-07T12:50:33;50.00;;;26.75;;
27839;SDS011;15207;42.182;24.308;2022-12-07T13:00:45;51.10;;;27.05;;
27839;SDS011;15207;42.182;24.308;2022-12-07T13:03:22;74.30;;;27.70;;
27839;SDS011;15207;42.182;24.308;2022-12-07T13:08:55;54.55;;;27.23;;
27839;SDS011;15207;42.182;24.308;2022-12-07T13:11:33;52.00;;;27.10;;
27839;SDS011;15207;42.182;24.308;2022-12-07T13:25:07;54.45;;;28.35;;
27839;SDS011;15207;42.182;24.308;2022-12-07T13:27:33;52.80;;;27.65;;
27839;SDS011;15207;42.182;24.308;2022-12-07T13:30:02;56.70;;;27.80;;
27839;SDS011;15207;42.182;24.308;2022-12-07T13:32:39;58.38;;;27.95;;
27839;SDS011;15207;42.182;24.308;2022-12-07T13:40:23;50.17;;;27.02;;
27839;SDS011;15207;42.182;24.308;2022-12-07T13:42:56;57.13;;;30.05;;
27839;SDS011;15207;42.182;24.308;2022-12-07T13:45:30;57.80;;;30.60;;
27839;SDS011;15207;42.182;24.308;2022-12-07T13:48:14;57.33;;;28.67;;
27839;SDS011;15207;42.182;24.308;2022-12-07T13:53:22;59.95;;;30.05;;
27839;SDS011;15207;42.182;24.308;2022-12-07T13:55:48;60.22;;;29.25;;
27839;SDS011;15207;42.182;24.308;2022-12-07T13:58:14;55.30;;;28.50;;
27839;SDS011;15207;42.182;24.308;2022-12-07T14:00:40;59.45;;;28.88;;
27839;SDS011;15207;42.182;24.308;2022-12-07T14:05:39;57.25;;;27.80;;
27839;SDS011;15207;42.182;24.308;2022-12-07T14:13:34;52.95;;;27.45;;
27839;SDS011;15207;42.182;24.308;2022-12-07T14:16:05;58.60;;;29.00;;
27839;SDS011;15207;42.182;24.308;2022-12-07T14:18:43;55.58;;;28.15;;
27839;SDS011;15207;42.182;24.308;2022-12-07T14:26:16;73.00;;;32.50;;
27839;SDS011;15207;42.182;24.308;2022-12-07T14:28:45;69.30;;;33.35;;
27839;SDS011;15207;42.182;24.308;2022-12-07T14:31:13;72.55;;;32.40;;
27839;SDS011;15207;42.182;24.308;2022-12-07T14:33:41;74.43;;;32.87;;
27839;SDS011;15207;42.182;24.308;2022-12-07T14:36:10;71.97;;;31.80;;
27839;SDS011;15207;42.182;24.308;2022-12-07T14:38:37;63.70;;;31.90;;
27839;SDS011;15207;42.182;24.308;2022-12-07T14:41:04;57.30;;;28.20;;
27839;SDS011;15207;42.182;24.308;2022-12-07T14:43:50;63.40;;;29.30;;
27839;SDS011;15207;42.182;24.308;2022-12-07T14:48:43;61.70;;;30.80;;
27839;SDS011;15207;42.182;24.308;2022-12-07T14:51:08;65.80;;;29.90;;
27839;SDS011;15207;42.182;24.308;2022-12-07T14:53:39;62.70;;;28.60;;
27839;SDS011;15207;42.182;24.308;2022-12-07T14:58:36;81.30;;;31.20;;
27839;SDS011;15207;42.182;24.308;2022-12-07T15:01:02;80.18;;;31.85;;
27839;SDS011;15207;42.182;24.308;2022-12-07T15:03:28;80.82;;;32.60;;
27839;SDS011;15207;42.182;24.308;2022-12-07T15:05:54;72.90;;;30.40;;
27839;SDS011;15207;42.182;24.308;2022-12-07T15:08:20;67.35;;;28.95;;
27839;SDS011;15207;42.182;24.308;2022-12-07T15:10:46;62.25;;;26.95;;
27839;SDS011;15207;42.182;24.308;2022-12-07T15:13:11;60.85;;;28.35;;
27839;SDS011;15207;42.182;24.308;2022-12-07T15:15:55;67.10;;;26.90;;
27839;SDS011;15207;42.182;24.308;2022-12-07T15:18:22;66.25;;;27.02;;
27839;SDS011;15207;42.182;24.308;2022-12-07T15:20:48;64.80;;;26.60;;
27839;SDS011;15207;42.182;24.308;2022-12-07T15:25:41;67.70;;;27.85;;
27839;SDS011;15207;42.182;24.308;2022-12-07T15:28:07;65.50;;;29.20;;
27839;SDS011;15207;42.182;24.308;2022-12-07T15:30:36;61.20;;;28.90;;
27839;SDS011;15207;42.182;24.308;2022-12-07T15:33:03;63.95;;;29.20;;
27839;SDS011;15207;42.182;24.308;2022-12-07T15:35:29;68.00;;;30.70;;
27839;SDS011;15207;42.182;24.308;2022-12-07T15:37:55;66.27;;;31.23;;
27839;SDS011;15207;42.182;24.308;2022-12-07T15:40:20;65.25;;;31.55;;
27839;SDS011;15207;42.182;24.308;2022-12-07T15:42:46;95.00;;;39.90;;
27839;SDS011;15207;42.182;24.308;2022-12-07T15:45:11;110.80;;;39.40;;
27839;SDS011;15207;42.182;24.308;2022-12-07T15:47:41;98.50;;;35.90;;
27839;SDS011;15207;42.182;24.308;2022-12-07T15:50:09;99.20;;;34.20;;
27839;SDS011;15207;42.182;24.308;2022-12-07T15:52:36;80.75;;;31.55;;
27839;SDS011;15207;42.182;24.308;2022-12-07T15:55:02;89.45;;;31.55;;
27839;SDS011;15207;42.182;24.308;2022-12-07T15:57:29;74.80;;;31.30;;
27839;SDS011;15207;42.182;24.308;2022-12-07T15:59:55;87.80;;;29.45;;
27839;SDS011;15207;42.182;24.308;2022-12-07T16:04:47;80.40;;;34.30;;
27839;SDS011;15207;42.182;24.308;2022-12-07T16:07:13;85.40;;;34.10;;
27839;SDS011;15207;42.182;24.308;2022-12-07T16:09:41;92.30;;;36.60;;
27839;SDS011;15207;42.182;24.308;2022-12-07T16:12:07;99.33;;;41.13;;
27839;SDS011;15207;42.182;24.308;2022-12-07T16:14:34;97.40;;;42.60;;
27839;SDS011;15207;42.182;24.308;2022-12-07T16:17:00;103.95;;;46.15;;
27839;SDS011;15207;42.182;24.308;2022-12-07T16:19:26;95.83;;;44.33;;
27839;SDS011;15207;42.182;24.308;2022-12-07T16:21:52;97.30;;;46.10;;
27839;SDS011;15207;42.182;24.308;2022-12-07T16:24:17;159.80;;;65.75;;
27839;SDS011;15207;42.182;24.308;2022-12-07T16:26:43;172.20;;;58.80;;
27839;SDS011;15207;42.182;24.308;2022-12-07T16:29:12;156.43;;;59.13;;
27839;SDS011;15207;42.182;24.308;2022-12-07T16:31:39;153.40;;;58.80;;
27839;SDS011;15207;42.182;24.308;2022-12-07T16:34:05;151.30;;;61.00;;
27839;SDS011;15207;42.182;24.308;2022-12-07T16:36:33;151.63;;;57.97;;
27839;SDS011;15207;42.182;24.308;2022-12-07T16:38:59;121.77;;;52.60;;
27839;SDS011;15207;42.182;24.308;2022-12-07T16:41:25;123.70;;;50.30;;
27839;SDS011;15207;42.182;24.308;2022-12-07T16:43:51;126.30;;;56.10;;
27839;SDS011;15207;42.182;24.308;2022-12-07T16:48:42;93.20;;;39.15;;
27839;SDS011;15207;42.182;24.308;2022-12-07T16:51:09;108.20;;;44.70;;
27839;SDS011;15207;42.182;24.308;2022-12-07T16:53:36;95.05;;;41.25;;
27839;SDS011;15207;42.182;24.308;2022-12-07T16:56:02;95.03;;;42.23;;
27839;SDS011;15207;42.182;24.308;2022-12-07T16:58:30;92.70;;;45.40;;
27839;SDS011;15207;42.182;24.308;2022-12-07T17:00:56;115.15;;;54.15;;
27839;SDS011;15207;42.182;24.308;2022-12-07T17:03:21;159.30;;;77.20;;
27839;SDS011;15207;42.182;24.308;2022-12-07T17:05:47;109.40;;;51.75;;
27839;SDS011;15207;42.182;24.308;2022-12-07T17:08:14;137.60;;;55.05;;
27839;SDS011;15207;42.182;24.308;2022-12-07T17:10:41;125.85;;;51.30;;
27839;SDS011;15207;42.182;24.308;2022-12-07T17:13:08;143.03;;;61.57;;
27839;SDS011;15207;42.182;24.308;2022-12-07T17:16:03;96.15;;;38.90;;
27839;SDS011;15207;42.182;24.308;2022-12-07T17:18:32;59.30;;;25.80;;
27839;SDS011;15207;42.182;24.308;2022-12-07T17:21:03;71.00;;;28.70;;
27839;SDS011;15207;42.182;24.308;2022-12-07T17:23:34;75.95;;;34.45;;
27839;SDS011;15207;42.182;24.308;2022-12-07T17:26:09;76.75;;;32.80;;
27839;SDS011;15207;42.182;24.308;2022-12-07T17:28:39;93.10;;;37.20;;
27839;SDS011;15207;42.182;24.308;2022-12-07T17:31:07;95.90;;;40.60;;
27839;SDS011;15207;42.182;24.308;2022-12-07T17:33:34;92.90;;;41.70;;
27839;SDS011;15207;42.182;24.308;2022-12-07T17:36:01;91.40;;;40.50;;